Stuntz, Minnesota
Current Conditions -  °F | °C
As of 2:53 PM on Wednesday 26 Nov 2014 (Local Time) from KHIB Reporting Station
Scattered Clouds Scattered Clouds  
Wind Chill:   Ceiling: Unl
Heat Index: 15°   Visibility: 10mi
Dew Point:   Wind: 13mph
Humidity: 56%   Direction: 320°NW
Pressure: 30.24"   Gusts: NA
Location:  47.4158°N, 93.0053°W
Report Text: KHIB 262053Z AUTO 32011KT 10SM SCT027 M09/M17 A3024 RMK AO2 SLP270 60000 T10941167 53012
Loading
Personal Weather Stations






























Interactive Weather Map New forecast layout! Learn more

10-Day Weather Forecast

Advertisements
Track Severe Weather on mobile